Time;durP1;ratioP1;P1;durP2;ratioP2;P2;SDS_P1;SDS_P2;PMS_P1;PMS_P2;Temp;Humidity;BMP_temperature;BMP_pressure;BME280_temperature;BME280_humidity;BME280_pressure;Samples;Min_cycle;Max_cycle;Signal;HPM_P1;HPM_P2
2023/01/08 00:02:02;;;;;;;6.18;5.57;;;21.90;64.40;;;;;;6238972;27;89468;-72
2023/01/08 00:05:07;;;;;;;5.90;5.40;;;21.90;64.40;;;;;;6245945;27;89949;-72
2023/01/08 00:08:09;;;;;;;6.88;5.45;;;21.90;63.70;;;;;;6252921;27;89345;-72
2023/01/08 00:11:12;;;;;;;6.18;5.57;;;21.90;63.80;;;;;;6248649;27;89187;-72
2023/01/08 00:14:14;;;;;;;5.90;5.40;;;21.90;65.00;;;;;;6252177;27;89088;-72
2023/01/08 00:17:16;;;;;;;5.35;4.90;;;21.80;63.80;;;;;;6259126;27;89015;-71
2023/01/08 00:20:19;;;;;;;4.85;4.45;;;21.80;63.70;;;;;;6257481;27;89052;-71
2023/01/08 00:23:21;;;;;;;4.78;4.38;;;21.80;64.00;;;;;;6270510;27;89538;-71
2023/01/08 00:26:23;;;;;;;4.80;4.40;;;21.80;64.50;;;;;;6259886;27;87266;-72
2023/01/08 05:39:44;;;;;;;3.83;3.42;;;21.40;70.10;;;;;;6204437;28;89463;-71
2023/01/08 05:42:46;;;;;;;4.35;3.95;;;21.40;70.10;;;;;;6208344;28;89267;-71
2023/01/08 05:45:48;;;;;;;4.60;4.10;;;21.40;70.10;;;;;;6195693;28;88945;-71
2023/01/08 05:48:50;;;;;;;4.30;3.90;;;21.40;70.10;;;;;;6205832;28;89402;-71
2023/01/08 05:51:52;;;;;;;4.25;3.88;;;21.40;70.10;;;;;;6207222;28;89304;-71
2023/01/08 05:54:56;;;;;;;3.83;3.45;;;21.40;70.10;;;;;;6197128;28;89401;-71
2023/01/08 05:58:01;;;;;;;3.50;3.20;;;21.50;70.10;;;;;;6206993;28;89158;-70
2023/01/08 06:01:05;;;;;;;5.03;4.10;;;21.40;70.00;;;;;;6202949;28;87142;-72
2023/01/08 06:04:07;;;;;;;4.68;4.28;;;21.50;70.10;;;;;;6207527;28;88277;-72
2023/01/08 06:07:09;;;;;;;3.92;3.53;;;21.40;70.00;;;;;;6200373;28;89491;-72
2023/01/08 06:10:12;;;;;;;4.55;3.65;;;21.50;70.10;;;;;;6206460;28;88999;-71
2023/01/08 06:13:14;;;;;;;4.00;3.60;;;21.50;70.20;;;;;;6206368;28;89057;-71
2023/01/08 06:16:16;;;;;;;4.28;3.90;;;21.50;70.30;;;;;;6206007;28;89037;-71
2023/01/08 06:19:18;;;;;;;4.70;3.65;;;21.50;70.40;;;;;;6207262;28;88839;-71
2023/01/08 06:22:21;;;;;;;3.85;3.55;;;21.50;70.40;;;;;;6205804;28;89090;-72
2023/01/08 06:25:24;;;;;;;4.10;3.70;;;21.40;70.30;;;;;;6194534;28;89175;-71
2023/01/08 06:28:27;;;;;;;3.78;3.40;;;21.50;70.50;;;;;;6206560;28;88974;-71
2023/01/08 06:31:29;;;;;;;3.55;3.20;;;21.40;70.30;;;;;;6206590;28;88292;-71
2023/01/08 06:34:31;;;;;;;4.80;3.60;;;21.50;70.40;;;;;;6206529;28;89075;-71
2023/01/08 06:37:33;;;;;;;4.03;3.53;;;21.40;70.30;;;;;;6205191;28;89109;-71
2023/01/08 06:40:36;;;;;;;4.35;3.42;;;21.50;70.50;;;;;;6190410;28;90022;-71
2023/01/08 06:43:38;;;;;;;4.82;3.60;;;21.50;70.60;;;;;;6203821;28;89100;-71
2023/01/08 06:46:40;;;;;;;4.00;3.53;;;21.50;70.80;;;;;;6195648;28;88997;-72
2023/01/08 06:49:43;;;;;;;4.95;3.75;;;21.50;70.80;;;;;;6198585;28;89200;-72
2023/01/08 06:52:52;;;;;;;5.68;3.28;;;21.50;70.80;;;;;;6200336;28;88999;-72
2023/01/08 06:55:57;;;;;;;3.60;3.30;;;21.50;70.90;;;;;;6206083;28;89558;-71
2023/01/08 06:58:59;;;;;;;4.05;3.53;;;21.50;71.00;;;;;;6199937;28;87942;-72
2023/01/08 07:02:01;;;;;;;4.10;3.40;;;21.50;71.00;;;;;;6202198;28;88334;-70
2023/01/08 07:05:03;;;;;;;6.88;3.50;;;21.50;71.00;;;;;;6205800;28;89131;-71
2023/01/08 07:08:05;;;;;;;10.40;3.58;;;21.50;71.00;;;;;;6206499;28;89487;-70
2023/01/08 07:11:09;;;;;;;8.45;3.60;;;21.50;71.80;;;;;;6194238;28;90469;-69
2023/01/08 07:14:11;;;;;;;8.13;3.60;;;21.50;72.30;;;;;;6202319;28;89112;-69
2023/01/08 07:17:13;;;;;;;14.82;4.28;;;21.50;72.70;;;;;;6206248;28;89007;-68
2023/01/08 07:20:15;;;;;;;710.30;282.02;;;21.50;72.90;;;;;;6202576;28;89365;-66
2023/01/08 07:23:17;;;;;;;372.52;169.57;;;21.50;77.90;;;;;;6202051;28;89197;-70
2023/01/08 07:26:21;;;;;;;1593.28;814.28;;;21.60;82.20;;;;;;6204079;28;88837;-69
2023/01/08 07:29:23;;;;;;;644.92;436.10;;;21.70;83.80;;;;;;6203961;28;89478;-70
2023/01/08 07:32:25;;;;;;;304.55;183.80;;;21.90;82.50;;;;;;6201974;28;88369;-70
2023/01/08 07:35:27;;;;;;;204.98;120.78;;;22.00;80.40;;;;;;6203609;28;89032;-70
2023/01/08 07:38:29;;;;;;;223.43;125.38;;;22.10;78.30;;;;;;6203943;28;89085;-70
2023/01/08 07:41:33;;;;;;;216.30;124.57;;;22.10;77.30;;;;;;6197717;28;90185;-69
2023/01/08 07:44:35;;;;;;;192.40;113.50;;;22.20;77.10;;;;;;6202043;28;87984;-70
2023/01/08 07:47:37;;;;;;;179.45;105.55;;;22.20;77.00;;;;;;6204310;28;89018;-71
2023/01/08 07:50:39;;;;;;;169.10;99.68;;;22.20;76.90;;;;;;6202933;28;89155;-73
2023/01/08 07:53:41;;;;;;;165.15;98.60;;;22.20;76.70;;;;;;6196988;28;89103;-71
2023/01/08 07:56:44;;;;;;;170.15;96.82;;;22.10;76.40;;;;;;6204961;28;89052;-71
2023/01/08 07:59:46;;;;;;;157.27;90.82;;;22.10;76.30;;;;;;6202814;28;87934;-72
2023/01/08 08:02:49;;;;;;;148.35;88.88;;;22.10;77.20;;;;;;6204864;28;88359;-70
2023/01/08 08:05:51;;;;;;;137.10;86.07;;;22.10;76.40;;;;;;6193046;28;89060;-72
2023/01/08 08:08:53;;;;;;;136.57;82.32;;;22.00;76.40;;;;;;6204431;28;89250;-69
2023/01/08 08:11:57;;;;;;;132.65;81.47;;;22.10;76.70;;;;;;6202913;28;90105;-71
2023/01/08 08:14:59;;;;;;;133.80;79.13;;;22.00;76.70;;;;;;6202224;28;89140;-71
2023/01/08 08:18:01;;;;;;;122.45;74.85;;;22.00;76.80;;;;;;6204137;28;89055;-71
2023/01/08 08:21:04;;;;;;;118.43;71.85;;;22.00;76.90;;;;;;6202154;28;89012;-72
2023/01/08 08:24:07;;;;;;;110.78;69.15;;;22.00;76.90;;;;;;6202262;28;89248;-72
2023/01/08 08:27:10;;;;;;;107.97;65.80;;;22.00;77.10;;;;;;6202586;28;91923;-72
2023/01/08 08:30:14;;;;;;;104.38;64.47;;;22.00;77.10;;;;;;6203681;28;89117;-71
2023/01/08 08:33:16;;;;;;;101.20;62.92;;;22.00;77.10;;;;;;6201770;28;88245;-72
2023/01/08 08:36:18;;;;;;;100.75;60.92;;;22.00;77.10;;;;;;6202350;28;89100;-71
2023/01/08 08:39:20;;;;;;;96.05;60.75;;;22.00;77.10;;;;;;6203898;28;89083;-72
2023/01/08 08:42:23;;;;;;;95.35;57.97;;;22.00;77.20;;;;;;6207267;28;89902;-71
2023/01/08 08:45:26;;;;;;;89.43;56.42;;;22.00;77.20;;;;;;6207560;28;89017;-70
2023/01/08 08:48:28;;;;;;;85.63;55.30;;;22.00;77.30;;;;;;6207659;28;89544;-72
2023/01/08 08:51:30;;;;;;;86.00;54.80;;;22.00;77.50;;;;;;6200060;28;89142;-71
2023/01/08 08:54:32;;;;;;;79.40;51.75;;;22.10;77.60;;;;;;6214325;28;89140;-71
2023/01/08 08:57:36;;;;;;;80.40;50.30;;;22.10;77.60;;;;;;6203744;28;89044;-71
2023/01/08 09:00:39;;;;;;;75.60;49.90;;;22.00;77.70;;;;;;6217874;28;89026;-71
2023/01/08 09:03:41;;;;;;;81.50;48.75;;;22.10;77.90;;;;;;6208485;28;88366;-71
2023/01/08 09:06:43;;;;;;;72.78;46.70;;;22.10;78.10;;;;;;6208498;28;88993;-71
2023/01/08 09:09:45;;;;;;;73.05;45.92;;;22.10;78.30;;;;;;6209939;28;87909;-70
2023/01/08 09:12:48;;;;;;;69.68;45.65;;;22.10;78.50;;;;;;6207355;28;89993;-71
2023/01/08 09:15:50;;;;;;;71.32;46.22;;;22.10;78.70;;;;;;6217724;28;89050;-70
2023/01/08 09:18:52;;;;;;;67.13;42.67;;;22.10;78.90;;;;;;6209707;28;89069;-70
2023/01/08 09:21:54;;;;;;;65.97;41.97;;;22.10;79.10;;;;;;6207722;28;88275;-71
2023/01/08 09:24:56;;;;;;;68.72;42.08;;;22.10;79.40;;;;;;6207411;28;89134;-72
2023/01/08 09:28:01;;;;;;;61.42;40.83;;;22.10;79.80;;;;;;6207468;28;89098;-70
2023/01/08 09:31:03;;;;;;;47.10;31.27;;;22.10;80.00;;;;;;6198286;28;88877;-71
2023/01/08 09:34:05;;;;;;;48.67;33.40;;;22.10;79.80;;;;;;6208230;28;88279;-70
2023/01/08 09:37:08;;;;;;;54.17;34.75;;;22.10;80.00;;;;;;6202999;28;89060;-70
2023/01/08 09:40:14;;;;;;;53.55;33.97;;;22.10;81.20;;;;;;6207787;28;89262;-71
2023/01/08 09:43:20;;;;;;;50.60;34.97;;;22.10;82.30;;;;;;6207476;28;90179;-69
2023/01/08 09:46:27;;;;;;;49.53;32.90;;;22.10;82.70;;;;;;6206640;28;89149;-70
2023/01/08 09:49:37;;;;;;;51.65;32.70;;;22.10;83.00;;;;;;6206186;28;88075;-70
2023/01/08 09:52:39;;;;;;;45.63;31.25;;;22.10;83.20;;;;;;6195951;28;89124;-70
2023/01/08 09:55:42;;;;;;;49.90;33.40;;;22.10;83.30;;;;;;6198232;28;89019;-71
2023/01/08 09:58:49;;;;;;;49.70;31.15;;;22.20;83.50;;;;;;6193882;28;87894;-70
2023/01/08 10:01:52;;;;;;;46.50;31.75;;;22.10;83.40;;;;;;6193567;28;88962;-70
2023/01/08 10:04:57;;;;;;;46.20;30.92;;;22.20;83.50;;;;;;6195697;28;88383;-70
2023/01/08 10:07:59;;;;;;;42.22;28.63;;;22.20;83.50;;;;;;6206397;28;88049;-70
2023/01/08 10:11:02;;;;;;;42.45;29.27;;;22.20;83.50;;;;;;6207683;28;89094;-70
2023/01/08 10:14:14;;;;;;;36.65;26.35;;;22.20;83.50;;;;;;6206315;28;90136;-70
2023/01/08 10:17:23;;;;;;;38.35;27.35;;;22.20;83.40;;;;;;6194751;28;89150;-70
2023/01/08 10:20:26;;;;;;;35.35;25.80;;;22.20;83.30;;;;;;6197504;28;89081;-70
2023/01/08 10:23:28;;;;;;;38.17;26.42;;;22.20;83.40;;;;;;6202805;28;89794;-70
2023/01/08 10:26:35;;;;;;;39.22;26.25;;;22.20;83.40;;;;;;6195016;28;88978;-69
2023/01/08 10:29:39;;;;;;;35.97;25.42;;;22.20;83.40;;;;;;6206583;28;88983;-69
2023/01/08 10:32:48;;;;;;;33.38;23.73;;;22.20;83.40;;;;;;6205971;28;89062;-68
2023/01/08 10:35:57;;;;;;;36.72;24.13;;;22.20;83.30;;;;;;6196889;28;88433;-70
2023/01/08 10:39:01;;;;;;;35.78;23.27;;;22.20;83.40;;;;;;6206394;28;88979;-69
2023/01/08 10:42:06;;;;;;;33.72;22.98;;;22.30;83.60;;;;;;6201683;28;89153;-68
2023/01/08 10:45:18;;;;;;;31.13;22.02;;;22.30;83.70;;;;;;6198972;28;90111;-69
2023/01/08 10:48:21;;;;;;;29.98;21.48;;;22.30;83.80;;;;;;6196690;28;89035;-68
2023/01/08 10:51:25;;;;;;;34.70;21.77;;;22.30;83.80;;;;;;6205882;28;88475;-69
2023/01/08 10:54:34;;;;;;;32.45;21.48;;;22.30;83.80;;;;;;6204198;28;89017;-69
2023/01/08 10:57:36;;;;;;;30.83;20.60;;;22.30;83.90;;;;;;6206756;28;89228;-67
2023/01/08 11:00:40;;;;;;;29.27;19.95;;;22.30;84.00;;;;;;6205300;28;89616;-67
2023/01/08 11:03:42;;;;;;;25.67;18.73;;;22.30;84.00;;;;;;6201620;28;87951;-66
2023/01/08 11:06:47;;;;;;;28.45;18.92;;;22.30;84.00;;;;;;6205268;28;88306;-69
2023/01/08 11:09:52;;;;;;;26.33;18.55;;;22.30;84.00;;;;;;6204752;28;89227;-69
2023/01/08 11:12:56;;;;;;;28.15;18.95;;;22.40;83.80;;;;;;6207617;28;87858;-68
2023/01/08 11:16:04;;;;;;;24.35;17.95;;;22.30;83.80;;;;;;6206338;28;89978;-67
2023/01/08 11:19:16;;;;;;;22.92;17.25;;;22.30;83.80;;;;;;6206305;28;89177;-68
2023/01/08 11:22:20;;;;;;;22.95;16.85;;;22.40;83.80;;;;;;6204550;28;88779;-68
2023/01/08 11:25:27;;;;;;;23.33;17.13;;;22.40;83.90;;;;;;6195468;28;89906;-68
2023/01/08 11:28:38;;;;;;;23.10;16.50;;;22.40;83.80;;;;;;6197905;28;89072;-68
2023/01/08 11:31:46;;;;;;;23.65;16.48;;;22.40;84.10;;;;;;6203556;28;89008;-68
2023/01/08 11:34:54;;;;;;;21.33;15.82;;;22.40;84.20;;;;;;6205456;28;89118;-68
2023/01/08 11:37:58;;;;;;;21.08;15.45;;;22.40;84.20;;;;;;6199317;28;88292;-68
2023/01/08 11:41:11;;;;;;;23.23;15.48;;;22.40;84.00;;;;;;6194277;28;89058;-69
2023/01/08 11:44:28;;;;;;;19.55;13.90;;;22.40;84.10;;;;;;6202173;28;89204;-67
2023/01/08 11:47:51;;;;;;;19.35;14.18;;;22.50;84.10;;;;;;6195879;28;89984;-69
2023/01/08 11:51:23;;;;;;;21.33;13.60;;;22.40;83.80;;;;;;6196579;28;89037;-68
2023/01/08 11:54:36;;;;;;;19.20;13.50;;;22.40;83.70;;;;;;6194718;28;89142;-68
2023/01/08 11:57:50;;;;;;;17.65;13.20;;;22.40;83.70;;;;;;6201536;28;89165;-68
2023/01/08 12:01:25;;;;;;;18.77;13.05;;;22.50;83.70;;;;;;6197325;28;89041;-68
2023/01/08 12:04:47;;;;;;;17.10;12.68;;;22.50;83.50;;;;;;6165548;28;89089;-70
2023/01/08 12:07:58;;;;;;;16.17;11.48;;;22.50;83.50;;;;;;6189723;28;89496;-69
2023/01/08 12:11:11;;;;;;;15.55;12.15;;;22.50;83.40;;;;;;6190262;28;88350;-69
2023/01/08 12:14:34;;;;;;;16.33;11.25;;;22.50;83.30;;;;;;6187224;28;89117;-71
2023/01/08 12:18:02;;;;;;;15.40;11.18;;;22.50;83.30;;;;;;6191263;28;89319;-69
2023/01/08 12:21:13;;;;;;;14.40;11.40;;;22.50;83.20;;;;;;6184405;28;90169;-73
2023/01/08 12:24:39;;;;;;;15.40;11.48;;;22.50;83.00;;;;;;6185042;28;89082;-73
2023/01/08 12:27:47;;;;;;;15.18;10.70;;;22.50;82.90;;;;;;6197407;28;89142;-71
2023/01/08 12:31:17;;;;;;;16.85;11.75;;;22.50;83.40;;;;;;6203219;28;89188;-73
2023/01/08 12:34:29;;;;;;;16.23;10.93;;;22.50;82.90;;;;;;6200899;28;89517;-72
2023/01/08 12:37:41;;;;;;;17.55;11.15;;;22.50;83.00;;;;;;6194189;28;89140;-69
2023/01/08 12:40:47;;;;;;;16.25;11.65;;;22.50;82.90;;;;;;6201899;28;89009;-69
2023/01/08 12:43:54;;;;;;;16.38;11.82;;;22.50;82.80;;;;;;6187309;28;88644;-69
2023/01/08 12:47:00;;;;;;;15.45;11.52;;;22.50;82.80;;;;;;6193989;28;88026;-68
2023/01/08 12:50:19;;;;;;;15.07;10.95;;;22.50;82.30;;;;;;6196072;28;89301;-67
2023/01/08 12:53:31;;;;;;;15.77;10.40;;;22.50;81.30;;;;;;6186219;28;89975;-68
2023/01/08 12:56:43;;;;;;;14.50;10.48;;;22.50;80.80;;;;;;6191938;28;89103;-69
2023/01/08 12:59:52;;;;;;;15.30;10.23;;;22.50;80.50;;;;;;6193563;28;90230;-68
2023/01/08 13:02:57;;;;;;;12.40;10.23;;;22.50;80.20;;;;;;6195131;28;88985;-67
2023/01/08 13:06:09;;;;;;;12.90;10.18;;;22.60;80.20;;;;;;6193059;28;88744;-67
2023/01/08 13:09:22;;;;;;;14.05;10.30;;;22.60;80.10;;;;;;6194510;28;89015;-67
2023/01/08 13:12:33;;;;;;;13.63;10.40;;;22.60;80.10;;;;;;6190409;28;88999;-68
2023/01/08 13:15:36;;;;;;;12.60;10.25;;;22.60;80.00;;;;;;6193791;28;90016;-68
2023/01/08 13:18:38;;;;;;;13.05;10.45;;;22.60;80.50;;;;;;6185042;28;89516;-68
2023/01/08 13:21:44;;;;;;;13.90;10.68;;;22.60;80.80;;;;;;6192926;28;89082;-68
2023/01/08 13:24:48;;;;;;;15.05;10.85;;;22.50;80.90;;;;;;6181348;28;89969;-67
2023/01/08 13:27:50;;;;;;;12.90;9.80;;;22.60;81.30;;;;;;6184689;28;89206;-69
2023/01/08 13:30:54;;;;;;;12.52;10.02;;;22.60;81.60;;;;;;6189055;28;89022;-69
2023/01/08 13:33:56;;;;;;;13.20;9.98;;;22.60;81.60;;;;;;6188791;28;87922;-66
2023/01/08 13:36:59;;;;;;;15.00;9.55;;;22.60;81.50;;;;;;6185628;28;89271;-72
2023/01/08 13:40:05;;;;;;;15.05;9.25;;;22.60;82.30;;;;;;6190028;28;87965;-70
2023/01/08 13:43:15;;;;;;;13.90;8.93;;;22.60;83.20;;;;;;6194218;28;89310;-69
2023/01/08 13:46:19;;;;;;;12.63;8.77;;;22.60;83.70;;;;;;6190015;28;88735;-69
2023/01/08 13:49:27;;;;;;;13.07;8.38;;;22.60;82.20;;;;;;6186609;28;89131;-67
2023/01/08 13:52:43;;;;;;;14.65;8.10;;;22.60;79.60;;;;;;6191529;28;89037;-68
2023/01/08 13:55:55;;;;;;;12.85;8.25;;;22.60;79.40;;;;;;6187506;28;90075;-68
2023/01/08 13:58:57;;;;;;;13.88;8.13;;;22.70;80.30;;;;;;6199137;28;87843;-68
2023/01/08 14:02:00;;;;;;;12.35;8.57;;;22.70;80.60;;;;;;6206825;28;89239;-68
2023/01/08 14:05:11;;;;;;;12.57;8.10;;;22.70;80.80;;;;;;6205129;28;87973;-68
2023/01/08 14:08:21;;;;;;;11.65;7.90;;;22.70;80.80;;;;;;6201155;28;89437;-68
2023/01/08 14:11:30;;;;;;;12.35;7.97;;;22.70;80.80;;;;;;6188360;28;88117;-68
2023/01/08 14:14:32;;;;;;;14.85;8.25;;;22.70;80.80;;;;;;6192967;28;88534;-68
2023/01/08 14:17:34;;;;;;;13.65;8.30;;;22.70;80.80;;;;;;6203594;28;87025;-67
2023/01/08 14:20:38;;;;;;;9.63;7.90;;;22.70;81.00;;;;;;6184836;28;89206;-67
2023/01/08 14:23:42;;;;;;;9.57;7.85;;;22.70;81.00;;;;;;6191793;28;88581;-67
2023/01/08 14:26:52;;;;;;;12.38;8.40;;;22.70;80.80;;;;;;6190410;28;90061;-66
2023/01/08 14:29:54;;;;;;;10.35;7.63;;;22.80;80.80;;;;;;6194383;28;89017;-67
2023/01/08 14:32:58;;;;;;;12.23;8.00;;;22.70;80.70;;;;;;6184958;28;89075;-67
2023/01/08 14:36:01;;;;;;;10.65;8.10;;;22.70;80.70;;;;;;6184224;28;87886;-66
2023/01/08 14:39:11;;;;;;;10.65;8.10;;;22.70;80.70;;;;;;6182653;28;88957;-67
2023/01/08 14:45:44;;;;;;;13.32;7.85;;;22.70;81.00;;;;;;6192276;28;89326;-66
2023/01/08 14:48:47;;;;;;;10.45;7.93;;;22.70;81.60;;;;;;6205663;28;88374;-67
2023/01/08 14:51:50;;;;;;;11.52;7.72;;;22.70;81.10;;;;;;6187009;28;88927;-67
2023/01/08 14:54:58;;;;;;;9.48;7.43;;;22.70;81.10;;;;;;6203753;28;88045;-67
2023/01/08 14:58:02;;;;;;;10.73;7.47;;;22.70;81.50;;;;;;6203198;28;88949;-66
2023/01/08 15:01:08;;;;;;;10.82;7.30;;;22.60;81.90;;;;;;6185284;28;89276;-67
2023/01/08 15:04:17;;;;;;;10.13;7.70;;;22.60;81.30;;;;;;6186528;28;89101;-67
2023/01/08 15:07:26;;;;;;;12.20;7.60;;;22.60;81.20;;;;;;6185750;28;89022;-66
2023/01/08 15:10:37;;;;;;;8.93;7.95;;;22.60;81.20;;;;;;6199177;28;89078;-65
2023/01/08 15:13:40;;;;;;;8.30;6.72;;;22.60;81.20;;;;;;6190188;28;89038;-66
2023/01/08 15:16:43;;;;;;;10.55;7.53;;;22.60;81.30;;;;;;6186895;28;87992;-66
2023/01/08 15:19:48;;;;;;;10.60;7.45;;;22.60;82.20;;;;;;6191923;28;88287;-66
2023/01/08 15:22:51;;;;;;;8.75;7.22;;;22.60;81.20;;;;;;6193352;28;89238;-66
2023/01/08 15:25:54;;;;;;;7.63;6.80;;;22.60;81.10;;;;;;6199495;28;87059;-66
2023/01/08 15:28:59;;;;;;;8.82;6.85;;;22.60;81.10;;;;;;6184799;28;90084;-67
2023/01/08 15:32:11;;;;;;;7.60;6.80;;;22.60;81.00;;;;;;6188482;28;89114;-66
2023/01/08 15:35:15;;;;;;;8.57;7.18;;;22.70;81.00;;;;;;6188494;28;89149;-67
2023/01/08 15:38:19;;;;;;;8.23;6.70;;;22.70;81.00;;;;;;6202662;28;89136;-67
2023/01/08 15:44:43;;;;;;;8.27;6.43;;;22.70;80.80;;;;;;6202456;28;87311;-66
2023/01/08 15:47:46;;;;;;;9.23;6.88;;;22.70;80.90;;;;;;6206065;28;89041;-67
2023/01/08 15:50:48;;;;;;;9.20;6.70;;;22.70;80.70;;;;;;6206072;28;88310;-67
2023/01/08 15:53:50;;;;;;;10.13;6.72;;;22.70;80.60;;;;;;6205585;28;89103;-66
2023/01/08 15:56:52;;;;;;;8.70;6.45;;;22.70;80.50;;;;;;6206327;28;89390;-67
2023/01/08 15:59:55;;;;;;;9.75;6.55;;;22.70;80.40;;;;;;6206409;28;90048;-67
2023/01/08 16:02:59;;;;;;;7.30;6.22;;;22.70;80.30;;;;;;6205985;28;89056;-66
2023/01/08 16:06:05;;;;;;;10.10;5.82;;;22.80;80.30;;;;;;6206209;28;89082;-66
2023/01/08 16:09:08;;;;;;;10.27;6.22;;;22.80;80.20;;;;;;6192929;28;89009;-66
2023/01/08 16:12:10;;;;;;;8.27;6.15;;;22.80;80.10;;;;;;6196282;28;89401;-67
2023/01/08 16:15:15;;;;;;;7.10;6.40;;;22.80;80.10;;;;;;6198889;28;89074;-66
2023/01/08 16:18:17;;;;;;;9.18;5.78;;;22.80;79.90;;;;;;6206202;28;88368;-66
2023/01/08 16:21:19;;;;;;;7.10;6.38;;;22.80;79.90;;;;;;6206780;28;88396;-67
2023/01/08 16:24:21;;;;;;;8.18;6.45;;;22.80;79.80;;;;;;6207025;28;89304;-66
2023/01/08 16:27:24;;;;;;;7.13;6.25;;;22.80;79.80;;;;;;6195449;28;89021;-67
2023/01/08 16:30:29;;;;;;;7.88;6.25;;;22.80;79.70;;;;;;6203990;28;88938;-66
2023/01/08 16:33:31;;;;;;;7.65;5.90;;;22.80;79.60;;;;;;6185269;28;89136;-66
2023/01/08 16:36:34;;;;;;;7.47;6.03;;;22.80;79.60;;;;;;6196168;28;89328;-67
2023/01/08 16:39:36;;;;;;;8.07;5.85;;;22.80;79.60;;;;;;6200606;28;88832;-66
2023/01/08 16:42:38;;;;;;;8.65;5.82;;;22.80;79.50;;;;;;6200052;28;87967;-66
2023/01/08 16:45:45;;;;;;;6.70;5.75;;;22.80;79.50;;;;;;6192559;28;89485;-67
2023/01/08 16:48:49;;;;;;;7.47;5.80;;;22.80;79.60;;;;;;6192379;28;89167;-66
2023/01/08 16:51:51;;;;;;;6.30;5.70;;;22.90;79.60;;;;;;6194203;28;87582;-67
2023/01/08 16:54:53;;;;;;;7.20;5.32;;;22.80;79.40;;;;;;6194904;28;89095;-67
2023/01/08 16:57:56;;;;;;;5.90;5.30;;;22.80;79.40;;;;;;6200728;28;87845;-67
2023/01/08 17:01:01;;;;;;;6.55;5.85;;;22.80;79.40;;;;;;6193071;28;90212;-66
2023/01/08 17:04:03;;;;;;;6.60;5.95;;;22.80;79.40;;;;;;6200264;28;87051;-66
2023/01/08 17:07:06;;;;;;;6.35;5.45;;;22.80;79.60;;;;;;6209660;28;88952;-67
2023/01/08 17:10:10;;;;;;;6.38;5.75;;;22.80;79.60;;;;;;6210127;28;89271;-66
2023/01/08 17:13:12;;;;;;;6.72;5.65;;;22.80;80.50;;;;;;6199948;28;88008;-67
2023/01/08 17:16:17;;;;;;;7.25;5.43;;;22.80;79.60;;;;;;6200265;28;89106;-66
2023/01/08 17:19:20;;;;;;;6.57;5.53;;;22.80;79.60;;;;;;6198637;28;89069;-66
2023/01/08 17:22:22;;;;;;;6.40;5.30;;;22.80;79.60;;;;;;6196905;28;87306;-66
2023/01/08 17:25:24;;;;;;;6.85;5.45;;;22.80;79.50;;;;;;6208426;28;88138;-67
2023/01/08 17:28:27;;;;;;;8.57;5.40;;;22.80;79.50;;;;;;6209410;28;89272;-66
2023/01/08 17:31:38;;;;;;;6.15;5.55;;;22.80;79.60;;;;;;6198374;28;89988;-66
2023/01/08 17:34:40;;;;;;;6.72;5.60;;;22.90;79.50;;;;;;6198951;28;89168;-66
2023/01/08 17:37:42;;;;;;;8.48;5.97;;;22.80;79.40;;;;;;6199235;28;89105;-66
2023/01/08 17:40:45;;;;;;;5.70;5.10;;;22.80;79.40;;;;;;6197523;28;88229;-66
2023/01/08 17:43:47;;;;;;;6.03;5.13;;;22.80;79.40;;;;;;6199774;28;89039;-66
2023/01/08 17:46:51;;;;;;;5.63;5.13;;;22.80;79.40;;;;;;6207755;28;88260;-66
2023/01/08 17:49:56;;;;;;;5.85;5.35;;;22.80;79.30;;;;;;6209380;28;88095;-66
2023/01/08 17:52:58;;;;;;;5.82;5.32;;;22.80;79.40;;;;;;6203350;28;87277;-66
2023/01/08 17:56:04;;;;;;;5.90;5.40;;;22.80;79.30;;;;;;6208730;28;89035;-66
2023/01/08 17:59:07;;;;;;;6.03;5.40;;;22.80;79.30;;;;;;6209051;28;89088;-66
2023/01/08 18:02:12;;;;;;;6.15;5.32;;;22.80;79.20;;;;;;6208459;28;90086;-66
2023/01/08 18:05:15;;;;;;;6.03;5.43;;;22.80;79.20;;;;;;6208874;28;88047;-66
2023/01/08 18:08:17;;;;;;;6.43;5.82;;;22.80;80.10;;;;;;6208426;28;87829;-66
2023/01/08 18:11:21;;;;;;;5.95;5.22;;;22.80;79.20;;;;;;6208304;28;89167;-66
2023/01/08 18:14:23;;;;;;;5.80;5.30;;;22.80;79.20;;;;;;6207456;28;88136;-66
2023/01/08 18:17:29;;;;;;;5.60;5.10;;;22.80;79.10;;;;;;6207688;28;89120;-66
2023/01/08 18:20:31;;;;;;;6.03;5.43;;;22.80;79.10;;;;;;6207168;28;88274;-66
2023/01/08 18:23:34;;;;;;;5.95;5.45;;;22.80;79.10;;;;;;6207362;28;87294;-66
2023/01/08 18:26:37;;;;;;;6.45;5.18;;;22.80;79.10;;;;;;6207841;28;89165;-66
2023/01/08 18:29:39;;;;;;;5.72;4.97;;;22.80;79.10;;;;;;6208340;28;88016;-66
2023/01/08 18:32:43;;;;;;;6.10;5.53;;;22.80;79.10;;;;;;6205689;28;90103;-66
2023/01/08 18:35:45;;;;;;;6.18;5.63;;;22.80;79.10;;;;;;6207107;28;89622;-66
2023/01/08 18:38:49;;;;;;;5.30;4.80;;;22.80;79.10;;;;;;6207629;28;87091;-67
2023/01/08 18:45:13;;;;;;;6.25;5.55;;;22.80;78.90;;;;;;6204800;28;88895;-66
2023/01/08 18:48:18;;;;;;;5.57;5.07;;;22.80;78.90;;;;;;6208978;28;90188;-66
2023/01/08 18:51:21;;;;;;;5.57;5.05;;;22.80;78.80;;;;;;6183413;28;87907;-66
2023/01/08 18:54:24;;;;;;;5.93;5.30;;;22.80;78.80;;;;;;6205939;28;87280;-66
2023/01/08 18:57:27;;;;;;;5.55;5.05;;;22.80;78.80;;;;;;6207102;28;88979;-67
2023/01/08 19:00:29;;;;;;;5.68;5.18;;;22.80;78.90;;;;;;6206670;28;87014;-66
2023/01/08 19:03:34;;;;;;;5.70;5.20;;;22.80;78.80;;;;;;6207602;28;90441;-66
2023/01/08 19:06:36;;;;;;;5.32;4.82;;;22.90;78.90;;;;;;6207782;28;88257;-66
2023/01/08 19:09:39;;;;;;;5.50;5.00;;;22.80;78.70;;;;;;6206489;28;88293;-66
2023/01/08 19:12:41;;;;;;;5.60;4.97;;;22.80;78.70;;;;;;6205216;28;89176;-66
2023/01/08 19:15:44;;;;;;;4.95;4.55;;;22.80;78.60;;;;;;6207489;28;87030;-66
2023/01/08 19:18:50;;;;;;;5.85;4.80;;;22.80;78.70;;;;;;6205701;28;87701;-66
2023/01/08 19:21:52;;;;;;;5.40;4.93;;;22.80;78.70;;;;;;6207038;28;87071;-66
2023/01/08 19:24:56;;;;;;;5.13;4.70;;;22.80;78.70;;;;;;6207644;28;87081;-67
2023/01/08 19:27:59;;;;;;;5.20;4.70;;;22.80;78.60;;;;;;6207047;28;87024;-66
2023/01/08 19:31:02;;;;;;;5.30;4.80;;;22.80;78.70;;;;;;6205237;28;87985;-66
2023/01/08 19:34:08;;;;;;;5.00;4.60;;;22.90;78.80;;;;;;6205528;28;89074;-66
2023/01/08 19:37:10;;;;;;;5.30;4.90;;;22.80;78.70;;;;;;6205887;28;88799;-66
2023/01/08 19:40:14;;;;;;;5.43;4.93;;;22.80;78.60;;;;;;6207124;28;87977;-66
2023/01/08 19:46:37;;;;;;;5.57;5.07;;;22.80;78.60;;;;;;6194187;28;88753;-66
2023/01/08 19:49:46;;;;;;;5.63;5.13;;;22.80;78.60;;;;;;6187923;28;89142;-66
2023/01/08 19:52:50;;;;;;;6.00;5.50;;;22.80;78.60;;;;;;6195811;28;87896;-66
2023/01/08 19:55:52;;;;;;;6.30;5.70;;;22.80;78.60;;;;;;6199672;28;88422;-66
2023/01/08 19:58:57;;;;;;;6.22;5.72;;;22.80;78.60;;;;;;6206305;28;88003;-67
2023/01/08 20:01:59;;;;;;;6.00;5.50;;;22.80;78.60;;;;;;6206392;28;88312;-66
2023/01/08 20:05:04;;;;;;;6.00;5.38;;;22.80;78.60;;;;;;6205702;28;90313;-66
2023/01/08 20:08:07;;;;;;;6.28;5.68;;;22.80;78.70;;;;;;6188535;28;88378;-66
2023/01/08 20:11:10;;;;;;;6.95;6.35;;;22.80;78.60;;;;;;6206094;28;89604;-66
2023/01/08 20:14:13;;;;;;;6.20;5.70;;;22.80;78.70;;;;;;6204610;28;89031;-65
2023/01/08 20:17:17;;;;;;;6.93;6.32;;;22.80;78.60;;;;;;6202720;28;88044;-65
2023/01/08 20:20:22;;;;;;;6.90;6.20;;;22.80;78.60;;;;;;6205831;28;88286;-67
2023/01/08 20:23:25;;;;;;;7.15;6.55;;;22.80;78.60;;;;;;6205241;28;88084;-66
2023/01/08 20:26:28;;;;;;;6.82;6.22;;;22.90;78.60;;;;;;6206133;28;87444;-66
2023/01/08 20:29:32;;;;;;;6.97;6.38;;;22.80;78.50;;;;;;6205044;28;88073;-66
2023/01/08 20:32:34;;;;;;;7.57;6.88;;;22.80;78.50;;;;;;6205613;28;88211;-66
2023/01/08 20:35:38;;;;;;;7.00;6.40;;;22.80;78.50;;;;;;6207539;28;90369;-67
2023/01/08 20:38:42;;;;;;;7.50;6.80;;;22.80;78.60;;;;;;6210786;28;88052;-66
2023/01/08 20:41:46;;;;;;;7.43;6.78;;;22.80;78.60;;;;;;6210289;28;88229;-66
2023/01/08 20:44:49;;;;;;;7.10;6.50;;;22.80;78.60;;;;;;6208440;28;88237;-66
2023/01/08 20:47:52;;;;;;;7.55;6.95;;;22.80;78.70;;;;;;6209448;28;89111;-66
2023/01/08 20:51:00;;;;;;;7.13;6.47;;;22.70;78.60;;;;;;6210223;28;89035;-67
2023/01/08 20:54:04;;;;;;;6.93;6.32;;;22.70;78.60;;;;;;6195315;28;89122;-66
2023/01/08 20:57:06;;;;;;;7.70;7.05;;;22.70;78.70;;;;;;6210024;28;88313;-66
2023/01/08 21:00:10;;;;;;;7.70;7.00;;;22.70;78.60;;;;;;6198766;28;90923;-66
2023/01/08 21:03:13;;;;;;;7.80;7.10;;;22.80;78.70;;;;;;6208499;28;87979;-66
2023/01/08 21:06:19;;;;;;;7.75;7.05;;;22.70;78.80;;;;;;6200256;28;90355;-66
2023/01/08 21:09:21;;;;;;;8.43;7.72;;;22.70;78.70;;;;;;6207097;28;89154;-66
2023/01/08 21:12:23;;;;;;;8.45;7.65;;;22.70;78.70;;;;;;6209615;28;89218;-66